createdAt,value
2023-02-14T00:02:38.689Z,252.43
2023-02-14T00:05:45.590Z,257.20
2023-02-14T00:08:54.363Z,265.41
2023-02-14T00:12:01.166Z,265.77
2023-02-14T00:15:20.105Z,259.60
2023-02-14T00:18:50.180Z,266.26
2023-02-14T00:21:56.588Z,264.23
2023-02-14T00:25:03.943Z,266.57
2023-02-14T00:28:09.801Z,267.21
2023-02-14T00:31:16.482Z,272.78
2023-02-14T00:34:25.633Z,267.49
2023-02-14T00:37:32.461Z,275.37
2023-02-14T00:40:38.198Z,272.16
2023-02-14T00:43:44.757Z,269.16
2023-02-14T00:46:50.642Z,259.29
2023-02-14T00:50:03.012Z,256.50
2023-02-14T00:53:08.866Z,260.08
2023-02-14T00:56:16.439Z,251.92
2023-02-14T00:59:22.422Z,246.76
2023-02-14T01:02:29.053Z,241.80
2023-02-14T01:05:37.501Z,237.17
2023-02-14T01:08:44.449Z,241.38
2023-02-14T01:11:50.227Z,247.57
2023-02-14T01:14:57.024Z,251.56
2023-02-14T01:18:03.622Z,238.22
2023-02-14T01:21:20.952Z,232.71
2023-02-14T01:24:27.707Z,232.41
2023-02-14T01:27:34.333Z,232.17
2023-02-14T01:30:40.254Z,219.55
2023-02-14T01:33:51.990Z,211.57
2023-02-14T01:37:00.421Z,210.32
2023-02-14T01:40:08.807Z,214.90
2023-02-14T01:43:21.902Z,224.61
2023-02-14T01:46:30.795Z,206.56
2023-02-14T01:49:44.108Z,206.53
2023-02-14T01:53:00.798Z,214.06
2023-02-14T01:56:15.678Z,219.29
2023-02-14T01:59:29.463Z,224.01
2023-02-14T02:02:35.262Z,229.56
2023-02-14T02:05:51.402Z,230.22
2023-02-14T02:09:15.252Z,228.44
2023-02-14T02:12:22.292Z,228.09
2023-02-14T02:15:34.305Z,217.17
2023-02-14T02:19:11.368Z,230.12
2023-02-14T02:23:10.332Z,224.77
2023-02-14T02:27:11.547Z,224.57
2023-02-14T02:31:10.832Z,227.22
2023-02-14T02:35:15.192Z,220.65
2023-02-14T02:38:50.104Z,214.34
2023-02-14T02:42:17.872Z,214.36
2023-02-14T02:46:05.067Z,222.61
2023-02-14T02:49:38.941Z,209.37
2023-02-14T02:53:06.459Z,207.17
2023-02-14T02:56:37.812Z,214.92
2023-02-14T02:59:48.941Z,216.12
2023-02-14T03:03:13.344Z,211.29
2023-02-14T03:06:19.125Z,200.73
2023-02-14T03:10:00.433Z,195.29
2023-02-14T03:13:34.602Z,188.29
2023-02-14T03:17:07.908Z,192.11
2023-02-14T03:20:26.240Z,191.17
2023-02-14T03:23:41.936Z,192.57
2023-02-14T03:27:00.168Z,196.58
2023-02-14T03:30:21.373Z,198.13
2023-02-14T03:33:42.113Z,193.34
2023-02-14T03:36:59.326Z,187.62
2023-02-14T03:40:14.017Z,184.20
2023-02-14T03:43:33.826Z,186.87
2023-02-14T03:46:48.718Z,186.81
2023-02-14T03:50:05.248Z,188.12
2023-02-14T03:53:16.263Z,187.61
2023-02-14T03:56:35.344Z,194.46
2023-02-14T03:59:45.885Z,190.57
2023-02-14T04:03:02.947Z,199.07
2023-02-14T04:06:09.580Z,201.83
2023-02-14T04:09:16.401Z,198.31
2023-02-14T04:12:35.941Z,200.08
2023-02-14T04:15:46.980Z,191.12
2023-02-14T04:19:04.992Z,195.57
2023-02-14T04:22:11.564Z,192.70
2023-02-14T04:25:17.905Z,193.48
2023-02-14T04:28:24.583Z,198.62
2023-02-14T04:31:33.260Z,201.03
2023-02-14T04:34:41.027Z,205.13
2023-02-14T04:37:46.859Z,206.20
2023-02-14T04:40:54.145Z,219.32
2023-02-14T04:43:59.918Z,219.89
2023-02-14T04:47:10.607Z,217.60
2023-02-14T04:50:17.624Z,213.36
2023-02-14T04:53:24.659Z,207.49
2023-02-14T04:56:30.595Z,203.70
2023-02-14T04:59:37.478Z,203.48
2023-02-14T05:02:45.816Z,202.34
2023-02-14T05:05:52.489Z,212.92
2023-02-14T05:08:58.600Z,208.77
2023-02-14T05:12:05.377Z,209.62
2023-02-14T05:15:12.703Z,207.49
2023-02-14T05:18:21.999Z,209.01
2023-02-14T05:21:28.651Z,216.49
2023-02-14T05:24:35.332Z,223.51
2023-02-14T05:27:41.133Z,216.18
2023-02-14T05:30:50.139Z,207.44
2023-02-14T05:33:58.546Z,204.81
2023-02-14T05:37:05.371Z,211.88
2023-02-14T05:40:14.065Z,219.40
2023-02-14T05:43:20.612Z,220.85
2023-02-14T05:46:26.351Z,217.67
2023-02-14T05:49:35.486Z,214.42
2023-02-14T05:52:41.690Z,219.97
2023-02-14T05:55:48.312Z,237.21
2023-02-14T05:58:54.036Z,240.70
2023-02-14T06:02:00.625Z,226.22
2023-02-14T06:05:11.853Z,215.85
2023-02-14T06:08:18.489Z,212.47
2023-02-14T06:11:24.309Z,208.76
2023-02-14T06:14:30.931Z,207.18
2023-02-14T06:17:36.809Z,207.87
2023-02-14T06:20:46.040Z,208.97
2023-02-14T06:23:51.826Z,214.09
2023-02-14T06:26:58.386Z,214.84
2023-02-14T06:30:04.830Z,230.75
2023-02-14T06:33:11.560Z,238.67
2023-02-14T06:36:20.398Z,250.12
2023-02-14T06:39:27.192Z,245.34
2023-02-14T06:42:32.973Z,249.05
2023-02-14T06:45:39.586Z,236.10
2023-02-14T06:48:45.806Z,231.60
2023-02-14T06:51:55.121Z,219.86
2023-02-14T06:55:00.962Z,235.41
2023-02-14T06:58:07.849Z,228.07
2023-02-14T07:01:13.755Z,203.05
2023-02-14T07:04:20.725Z,194.29
2023-02-14T07:07:29.266Z,209.89
2023-02-14T07:10:36.014Z,214.38
2023-02-14T07:13:41.841Z,224.32
2023-02-14T07:16:48.538Z,202.99
2023-02-14T07:19:54.269Z,196.61
2023-02-14T07:23:04.721Z,218.45
2023-02-14T07:26:10.814Z,268.44
2023-02-14T07:29:18.671Z,332.88
2023-02-14T07:32:25.911Z,389.70
2023-02-14T07:35:33.239Z,321.13
2023-02-14T07:38:41.722Z,317.02
2023-02-14T07:41:48.330Z,297.27
2023-02-14T07:44:57.712Z,247.55
2023-02-14T07:48:04.796Z,222.68
2023-02-14T07:51:11.355Z,219.83
2023-02-14T07:54:21.226Z,226.39
2023-02-14T08:00:48.290Z,242.68
2023-02-14T08:03:54.540Z,218.67
2023-02-14T08:07:01.195Z,209.18
2023-02-14T08:10:12.990Z,212.66
2023-02-14T08:13:19.926Z,194.71
2023-02-14T08:16:25.856Z,190.75
2023-02-14T08:19:33.504Z,196.53
2023-02-14T08:22:39.336Z,206.43
2023-02-14T08:25:48.708Z,204.33
2023-02-14T08:28:54.628Z,214.14
2023-02-14T08:32:01.937Z,203.61
2023-02-14T08:35:08.152Z,195.62
2023-02-14T08:38:15.039Z,199.57
2023-02-14T08:41:23.530Z,197.95
2023-02-14T08:44:30.407Z,196.05
2023-02-14T08:47:38.656Z,208.45
2023-02-14T08:50:45.897Z,202.98
2023-02-14T08:53:57.052Z,184.44
2023-02-14T08:57:06.861Z,177.85
2023-02-14T09:00:15.359Z,171.69
2023-02-14T09:03:22.787Z,192.46
2023-02-14T09:06:29.849Z,291.33
2023-02-14T09:09:37.543Z,278.52
2023-02-14T09:12:46.265Z,188.57
2023-02-14T09:15:55.441Z,164.50
2023-02-14T09:19:01.409Z,177.78
2023-02-14T09:22:11.216Z,234.03
2023-02-14T09:25:16.998Z,196.53
2023-02-14T09:28:26.159Z,336.37
2023-02-14T09:31:31.995Z,208.67
2023-02-14T09:34:39.380Z,161.22
2023-02-14T09:37:45.107Z,156.67
2023-02-14T09:40:54.725Z,133.24
2023-02-14T09:44:10.218Z,133.45
2023-02-14T09:47:31.998Z,131.74
2023-02-14T09:50:48.924Z,133.67
2023-02-14T09:54:07.121Z,186.91
2023-02-14T09:57:30.727Z,131.63
2023-02-14T10:00:51.831Z,127.77
2023-02-14T10:04:28.639Z,125.70
2023-02-14T10:07:53.281Z,130.26
2023-02-14T10:11:11.685Z,131.75
2023-02-14T10:14:26.230Z,133.70
2023-02-14T10:17:47.165Z,135.30
2023-02-14T10:21:00.772Z,145.01
2023-02-14T10:24:21.050Z,144.60
2023-02-14T10:27:39.771Z,139.76
2023-02-14T10:31:01.670Z,141.68
2023-02-14T10:34:25.464Z,142.72
2023-02-14T10:38:01.022Z,139.15
2023-02-14T10:41:30.177Z,145.37
2023-02-14T10:44:57.276Z,134.42
2023-02-14T10:48:23.295Z,141.36
2023-02-14T10:51:46.923Z,149.38
2023-02-14T10:55:00.108Z,153.27
2023-02-14T10:58:13.019Z,132.14
2023-02-14T11:01:22.606Z,146.74
2023-02-14T11:04:29.143Z,137.15
2023-02-14T11:07:39.845Z,144.83
2023-02-14T11:10:46.138Z,135.44
2023-02-14T11:13:53.656Z,138.33
2023-02-14T11:17:01.937Z,134.45
2023-02-14T11:20:30.668Z,153.00
2023-02-14T11:23:44.104Z,120.40
2023-02-14T11:26:55.732Z,111.11
2023-02-14T11:30:03.264Z,136.39
2023-02-14T11:33:15.732Z,147.29
2023-02-14T11:36:21.808Z,132.31
2023-02-14T11:39:37.106Z,127.92
2023-02-14T11:42:51.646Z,113.84
2023-02-14T11:46:19.190Z,108.02
2023-02-14T11:49:35.050Z,123.86
2023-02-14T11:52:54.992Z,112.50
2023-02-14T11:56:03.914Z,107.58
2023-02-14T11:59:23.574Z,105.25
2023-02-14T12:02:43.562Z,99.25
2023-02-14T12:05:57.429Z,104.23
2023-02-14T12:09:16.249Z,107.72
2023-02-14T12:12:29.160Z,111.42
2023-02-14T12:15:40.893Z,102.80
2023-02-14T12:19:02.501Z,101.48
2023-02-14T12:22:10.345Z,98.74
2023-02-14T12:25:25.698Z,88.18
2023-02-14T12:28:46.068Z,102.20
2023-02-14T12:31:53.501Z,106.85
2023-02-14T12:35:16.276Z,111.42
2023-02-14T12:38:44.787Z,118.79
2023-02-14T12:42:07.954Z,117.21
2023-02-14T12:45:30.276Z,116.16
2023-02-14T12:49:03.278Z,117.30
2023-02-14T12:52:41.389Z,116.65
2023-02-14T12:56:06.712Z,110.37
2023-02-14T12:59:35.304Z,111.89
2023-02-14T13:03:44.202Z,110.92
2023-02-14T13:07:00.490Z,110.36
2023-02-14T13:10:30.155Z,106.39
2023-02-14T13:14:04.565Z,93.93
2023-02-14T13:17:27.418Z,144.08
2023-02-14T13:20:52.454Z,128.24
2023-02-14T13:24:14.099Z,121.39
2023-02-14T13:27:30.391Z,118.41
2023-02-14T13:30:42.258Z,126.25
2023-02-14T13:33:55.600Z,132.45
2023-02-14T13:37:12.554Z,125.51
2023-02-14T13:40:26.762Z,184.66
2023-02-14T13:43:53.131Z,1801.52
2023-02-14T13:47:00.054Z,3270.10
2023-02-14T13:50:09.480Z,2111.33
2023-02-14T13:53:41.896Z,3668.03
2023-02-14T13:56:47.768Z,1496.38
2023-02-14T14:00:38.316Z,672.25
2023-02-14T14:04:01.957Z,701.01
2023-02-14T14:07:30.180Z,788.29
2023-02-14T14:10:51.853Z,210.29
2023-02-14T14:14:01.972Z,354.09
2023-02-14T14:17:28.388Z,1053.00
2023-02-14T14:20:52.667Z,1264.53
2023-02-14T14:24:28.284Z,1424.02
2023-02-14T14:27:44.956Z,525.01
2023-02-14T14:30:51.895Z,492.02
2023-02-14T14:34:04.287Z,866.37
2023-02-14T14:37:21.353Z,2825.68
2023-02-14T14:40:32.188Z,1424.88
2023-02-14T14:43:43.856Z,3447.68
2023-02-14T14:46:53.931Z,2596.72
2023-02-14T14:50:10.864Z,2365.30
2023-02-14T14:53:29.406Z,2593.75
2023-02-14T14:56:42.362Z,888.24
2023-02-14T14:59:52.219Z,1349.95
2023-02-14T15:03:09.761Z,2110.77
2023-02-14T15:06:23.137Z,2023.29
2023-02-14T15:09:36.384Z,2344.73
2023-02-14T15:12:56.542Z,1471.53
2023-02-14T15:16:05.778Z,450.58
2023-02-14T15:19:22.567Z,186.68
2023-02-14T15:22:34.000Z,554.12
2023-02-14T15:25:44.759Z,477.49
2023-02-14T15:29:01.306Z,437.50
2023-02-14T15:32:15.439Z,594.02
2023-02-14T15:35:32.104Z,375.54
2023-02-14T15:38:45.206Z,333.68
2023-02-14T15:41:51.154Z,314.68
2023-02-14T15:45:25.604Z,363.62
2023-02-14T15:48:38.016Z,268.60
2023-02-14T15:51:50.533Z,349.34
2023-02-14T15:54:56.454Z,480.54
2023-02-14T15:58:09.894Z,1304.65
2023-02-14T16:01:16.929Z,456.07
2023-02-14T16:04:33.277Z,829.64
2023-02-14T16:07:39.203Z,535.69
2023-02-14T16:10:46.270Z,940.51
2023-02-14T16:13:52.084Z,898.10
2023-02-14T16:17:04.822Z,1857.34
2023-02-14T16:20:45.472Z,3276.77
2023-02-14T16:24:16.018Z,3121.79
2023-02-14T16:27:21.863Z,1855.97
2023-02-14T16:30:28.927Z,1128.54
2023-02-14T16:33:40.111Z,696.04
2023-02-14T16:36:49.656Z,482.86
2023-02-14T16:39:59.567Z,429.61
2023-02-14T16:43:09.507Z,444.01
2023-02-14T16:46:17.709Z,495.63
2023-02-14T16:49:25.591Z,425.74
2023-02-14T16:52:34.486Z,421.10
2023-02-14T16:55:42.701Z,343.33
2023-02-14T16:58:50.380Z,333.91
2023-02-14T17:02:02.872Z,425.39
2023-02-14T17:05:10.131Z,358.43
2023-02-14T17:08:20.720Z,370.69
2023-02-14T17:11:31.080Z,305.62
2023-02-14T17:14:42.729Z,290.66
2023-02-14T17:17:52.204Z,290.33
2023-02-14T17:20:59.435Z,304.83
2023-02-14T17:24:08.819Z,380.96
2023-02-14T17:27:15.564Z,347.24
2023-02-14T17:30:23.343Z,434.04
2023-02-14T17:33:30.693Z,509.84
2023-02-14T17:36:36.887Z,474.28
2023-02-14T17:39:46.268Z,495.38
2023-02-14T17:42:52.206Z,476.32
2023-02-14T17:45:58.880Z,490.04
2023-02-14T17:49:05.480Z,526.18
2023-02-14T17:52:12.322Z,576.77
2023-02-14T17:55:21.041Z,691.66
2023-02-14T17:58:27.754Z,696.71
2023-02-14T18:01:36.375Z,632.34
2023-02-14T18:04:43.205Z,589.07
2023-02-14T18:07:48.960Z,689.37
2023-02-14T18:10:58.977Z,588.42
2023-02-14T18:14:04.980Z,529.86
2023-02-14T18:17:11.848Z,484.54
2023-02-14T18:20:17.687Z,537.04
2023-02-14T18:23:25.003Z,484.06
2023-02-14T18:26:34.683Z,586.88
2023-02-14T18:29:41.608Z,545.72
2023-02-14T18:32:47.995Z,499.63
2023-02-14T18:35:54.564Z,592.59
2023-02-14T18:39:01.185Z,656.24
2023-02-14T18:42:10.468Z,801.06
2023-02-14T18:45:16.405Z,676.91
2023-02-14T18:48:23.146Z,520.85
2023-02-14T18:51:33.502Z,481.58
2023-02-14T18:54:40.539Z,496.77
2023-02-14T18:57:49.052Z,546.25
2023-02-14T19:00:56.679Z,513.83
2023-02-14T19:04:06.206Z,486.45
2023-02-14T19:07:15.715Z,501.11
2023-02-14T19:10:22.070Z,529.41
2023-02-14T19:13:32.483Z,500.24
2023-02-14T19:16:51.263Z,518.95
2023-02-14T19:20:00.097Z,500.10
2023-02-14T19:23:06.668Z,466.79
2023-02-14T19:26:15.169Z,480.65
2023-02-14T19:29:27.455Z,508.96
2023-02-14T19:32:34.105Z,528.48
2023-02-14T19:35:40.393Z,518.09
2023-02-14T19:38:51.351Z,506.19
2023-02-14T19:41:57.151Z,532.47
2023-02-14T19:45:09.950Z,530.41
2023-02-14T19:48:15.928Z,523.48
2023-02-14T19:51:29.073Z,511.49
2023-02-14T19:54:34.995Z,513.50
2023-02-14T19:57:42.493Z,514.31
2023-02-14T20:00:59.629Z,519.72
2023-02-14T20:04:10.332Z,519.54
2023-02-14T20:07:16.893Z,520.65
2023-02-14T20:10:24.003Z,514.00
2023-02-14T20:13:31.384Z,549.45
2023-02-14T20:16:41.688Z,572.73
2023-02-14T20:19:47.585Z,564.56
2023-02-14T20:22:54.139Z,548.48
2023-02-14T20:26:02.923Z,510.83
2023-02-14T20:29:12.828Z,505.83
2023-02-14T20:32:22.018Z,539.99
2023-02-14T20:35:31.774Z,576.86
2023-02-14T20:38:38.541Z,593.08
2023-02-14T20:41:50.210Z,595.52
2023-02-14T20:44:56.200Z,556.76
2023-02-14T20:48:07.262Z,547.67
2023-02-14T20:51:14.994Z,545.86
2023-02-14T20:54:24.723Z,550.19
2023-02-14T20:57:32.420Z,541.64
2023-02-14T21:00:39.470Z,544.10
2023-02-14T21:03:51.228Z,575.22
2023-02-14T21:07:00.399Z,554.91
2023-02-14T21:10:07.417Z,534.94
2023-02-14T21:13:14.155Z,523.05
2023-02-14T21:16:22.850Z,532.58
2023-02-14T21:19:31.996Z,538.54
2023-02-14T21:22:37.942Z,577.83
2023-02-14T21:25:45.084Z,597.36
2023-02-14T21:29:01.141Z,566.32
2023-02-14T21:32:10.418Z,592.53
2023-02-14T21:35:19.345Z,677.17
2023-02-14T21:38:26.507Z,661.26
2023-02-14T21:41:34.696Z,688.51
2023-02-14T21:44:54.366Z,673.51
2023-02-14T21:48:12.540Z,743.16
2023-02-14T21:51:23.115Z,806.97
2023-02-14T21:54:29.037Z,721.08
2023-02-14T21:57:35.878Z,779.60
2023-02-14T22:00:48.260Z,884.35
2023-02-14T22:03:57.028Z,980.85
2023-02-14T22:07:05.564Z,856.05
2023-02-14T22:10:13.972Z,780.30
2023-02-14T22:13:19.775Z,709.88
2023-02-14T22:16:28.546Z,631.68
2023-02-14T22:19:36.930Z,650.98
2023-02-14T22:22:47.363Z,706.16
2023-02-14T22:25:57.525Z,885.42
2023-02-14T22:29:06.137Z,747.79
2023-02-14T22:32:12.054Z,659.56
2023-02-14T22:35:19.166Z,636.19
2023-02-14T22:38:28.258Z,600.05
2023-02-14T22:41:37.880Z,583.81
2023-02-14T22:44:43.908Z,561.01
2023-02-14T22:47:50.533Z,582.50
2023-02-14T22:50:56.266Z,576.45
2023-02-14T22:54:08.631Z,583.92
2023-02-14T22:57:17.032Z,253.08
2023-02-14T23:00:25.051Z,407.51
2023-02-14T23:03:31.099Z,392.96
2023-02-14T23:06:40.286Z,395.33
2023-02-14T23:09:48.672Z,392.76
2023-02-14T23:13:07.816Z,422.32
2023-02-14T23:16:25.962Z,427.36
2023-02-14T23:19:49.327Z,421.08
2023-02-14T23:22:54.999Z,511.02
2023-02-14T23:26:04.334Z,586.26
2023-02-14T23:29:10.108Z,630.87
2023-02-14T23:32:17.619Z,575.84
2023-02-14T23:35:23.399Z,567.38
2023-02-14T23:38:29.974Z,511.80
2023-02-14T23:41:50.373Z,659.44
2023-02-14T23:45:17.004Z,413.04
2023-02-14T23:48:22.798Z,578.60
2023-02-14T23:51:29.367Z,608.93
2023-02-14T23:54:35.842Z,679.14
2023-02-14T23:57:44.959Z,631.99
